Time;durP1;ratioP1;P1;durP2;ratioP2;P2;SDS_P1;SDS_P2;PMS_P1;PMS_P2;Temp;Humidity;BMP_temperature;BMP_pressure;BME280_temperature;BME280_humidity;BME280_pressure;Samples;Min_cycle;Max_cycle;Signal;HPM_P1;HPM_P2
2023/06/05 00:00:33;;;;;;;16.73;4.18;;;18.10;85.10;;;;;;4213131;28;20405;-55
2023/06/05 00:02:35;;;;;;;13.57;4.85;;;18.20;84.90;;;;;;4195038;28;20047;-55
2023/06/05 00:04:39;;;;;;;14.85;4.25;;;18.10;85.00;;;;;;4213233;28;20047;-55
2023/06/05 00:06:43;;;;;;;9.65;4.38;;;18.10;85.20;;;;;;4212575;28;20074;-54
2023/06/05 00:08:45;;;;;;;12.98;4.20;;;18.00;85.60;;;;;;4195339;28;20040;-55
2023/06/05 00:10:47;;;;;;;14.00;4.90;;;18.00;85.80;;;;;;4195175;28;20431;-57
2023/06/05 00:12:50;;;;;;;11.50;4.35;;;18.00;85.70;;;;;;4215266;28;20089;-57
2023/06/05 00:14:52;;;;;;;13.63;4.40;;;17.90;85.70;;;;;;4215324;28;20048;-54
2023/06/05 00:16:56;;;;;;;10.45;4.03;;;17.90;85.80;;;;;;4215868;28;20074;-55
2023/06/05 00:18:58;;;;;;;14.30;4.20;;;17.90;85.90;;;;;;4215877;28;20044;-56
2023/06/05 00:21:00;;;;;;;10.55;4.18;;;17.80;85.90;;;;;;4215548;28;20993;-58
2023/06/05 00:23:03;;;;;;;11.85;3.90;;;17.90;86.00;;;;;;4215946;28;20040;-57
2023/06/05 00:25:07;;;;;;;10.43;3.60;;;17.80;86.30;;;;;;4214797;28;20413;-57
2023/06/05 00:27:09;;;;;;;16.63;3.63;;;17.80;86.20;;;;;;4215764;28;20059;-58
2023/06/05 00:29:11;;;;;;;11.05;3.65;;;17.70;86.60;;;;;;4217408;28;20044;-56
2023/06/05 00:31:14;;;;;;;8.50;3.15;;;17.70;86.30;;;;;;4217117;28;20048;-58
2023/06/05 00:33:16;;;;;;;11.23;3.30;;;17.70;86.60;;;;;;4217403;28;20130;-56
2023/06/05 00:35:18;;;;;;;10.50;3.60;;;17.70;86.70;;;;;;4190559;28;20036;-57
2023/06/05 00:37:20;;;;;;;8.20;3.45;;;17.70;86.50;;;;;;4199511;28;20148;-57
2023/06/05 00:39:24;;;;;;;9.02;3.47;;;17.70;86.40;;;;;;4213879;28;20075;-57
2023/06/05 00:41:27;;;;;;;8.52;3.22;;;17.70;86.60;;;;;;4216335;28;20048;-55
2023/06/05 00:43:30;;;;;;;12.15;4.00;;;17.70;86.50;;;;;;4215688;28;20079;-57
2023/06/05 00:45:32;;;;;;;6.43;3.40;;;17.70;86.70;;;;;;4215001;28;20418;-56
2023/06/05 00:47:35;;;;;;;14.52;4.75;;;17.60;86.60;;;;;;4215596;28;20048;-56
2023/06/05 00:49:37;;;;;;;12.35;5.78;;;17.60;87.10;;;;;;4215514;28;20044;-56
2023/06/05 00:51:42;;;;;;;15.57;7.10;;;17.60;87.30;;;;;;4215619;28;20071;-55
2023/06/05 00:53:46;;;;;;;12.63;7.28;;;17.60;87.40;;;;;;4215594;28;20127;-57
2023/06/05 00:55:51;;;;;;;17.75;8.93;;;17.60;87.50;;;;;;4214439;28;20074;-57
2023/06/05 00:57:54;;;;;;;16.15;8.93;;;17.50;87.30;;;;;;4214581;28;20489;-54
2023/06/05 00:59:56;;;;;;;15.98;7.82;;;17.40;87.70;;;;;;4215802;28;20417;-54
2023/06/05 01:01:59;;;;;;;18.15;8.80;;;17.50;87.70;;;;;;4215374;28;20117;-55
2023/06/05 01:04:01;;;;;;;21.38;8.48;;;17.40;88.00;;;;;;4215145;28;20040;-57
2023/06/05 01:06:04;;;;;;;18.40;7.88;;;17.40;88.20;;;;;;4214328;28;20078;-56
2023/06/05 01:08:09;;;;;;;13.55;6.40;;;17.30;88.20;;;;;;4215097;28;20040;-57
2023/06/05 01:10:11;;;;;;;15.73;6.13;;;17.30;88.70;;;;;;4215327;28;20051;-55
2023/06/05 01:12:29;;;;;;;11.35;5.25;;;17.30;88.00;;;;;;4197403;28;20068;-57
2023/06/05 01:14:34;;;;;;;11.95;5.25;;;17.30;88.50;;;;;;4215006;28;20048;-56
2023/06/05 01:16:39;;;;;;;12.23;4.47;;;17.20;88.80;;;;;;4213971;28;20048;-57
2023/06/05 01:18:45;;;;;;;7.03;3.60;;;17.00;89.00;;;;;;4214943;28;20047;-54
2023/06/05 01:20:48;;;;;;;9.57;3.95;;;17.10;89.10;;;;;;4214995;28;20472;-57
2023/06/05 01:22:52;;;;;;;9.43;3.35;;;17.10;89.10;;;;;;4215226;28;20079;-56
2023/06/05 01:24:54;;;;;;;12.32;3.80;;;17.10;89.30;;;;;;4213563;28;20056;-56
2023/06/05 01:27:07;;;;;;;9.25;3.38;;;17.10;89.30;;;;;;4214304;28;20082;-56
2023/06/05 01:29:13;;;;;;;10.52;3.50;;;17.00;89.30;;;;;;4214963;28;20113;-57
2023/06/05 01:31:19;;;;;;;9.70;3.55;;;17.10;89.30;;;;;;4214824;28;20072;-56
2023/06/05 01:33:29;;;;;;;11.73;3.33;;;17.00;89.30;;;;;;4196820;28;20054;-57
2023/06/05 01:35:33;;;;;;;9.68;3.00;;;17.00;89.50;;;;;;4206706;28;20509;-57
2023/06/05 01:37:40;;;;;;;9.13;3.10;;;17.00;89.60;;;;;;4214744;28;20058;-57
2023/06/05 01:39:46;;;;;;;10.73;3.25;;;16.90;89.40;;;;;;4198211;28;20045;-56
2023/06/05 01:41:50;;;;;;;10.35;3.33;;;16.90;89.60;;;;;;4197917;28;20052;-57
2023/06/05 01:43:54;;;;;;;;;;;16.90;89.60;;;;;;4198335;28;20079;-57
2023/06/05 01:45:58;;;;;;;8.75;3.58;;;16.80;89.80;;;;;;4196955;28;19927;-57
2023/06/05 01:48:03;;;;;;;13.95;4.00;;;16.80;90.00;;;;;;4197710;28;20047;-54
2023/06/05 01:50:07;;;;;;;10.70;3.17;;;16.70;90.10;;;;;;4197991;28;20048;-54
2023/06/05 01:52:09;;;;;;;8.50;3.15;;;16.70;90.00;;;;;;4197963;28;20136;-55
2023/06/05 01:54:11;;;;;;;13.55;3.53;;;16.70;90.20;;;;;;4197815;28;20102;-55
2023/06/05 01:56:19;;;;;;;10.98;3.55;;;16.70;90.40;;;;;;4196719;28;20049;-57
2023/06/05 01:58:21;;;;;;;9.25;3.03;;;16.60;90.30;;;;;;4198102;28;20070;-57
2023/06/05 02:00:24;;;;;;;9.70;3.35;;;16.60;90.20;;;;;;4197865;28;20052;-56
2023/06/05 02:02:26;;;;;;;9.35;3.47;;;16.60;90.40;;;;;;4197356;28;20045;-56
2023/06/05 02:04:29;;;;;;;12.70;3.38;;;16.60;90.30;;;;;;4198078;28;20049;-57
2023/06/05 02:06:42;;;;;;;10.93;3.72;;;16.60;90.20;;;;;;4196827;28;20048;-58
2023/06/05 02:08:44;;;;;;;14.27;3.45;;;16.60;90.20;;;;;;4181579;28;20128;-63
2023/06/05 02:10:46;;;;;;;9.95;3.58;;;16.70;90.40;;;;;;4201033;28;20055;-61
2023/06/05 02:12:50;;;;;;;14.63;3.45;;;16.50;90.50;;;;;;4200856;28;20461;-61
2023/06/05 02:14:53;;;;;;;10.70;3.67;;;16.50;90.60;;;;;;4200235;28;20045;-59
2023/06/05 02:16:56;;;;;;;8.40;3.78;;;16.50;90.60;;;;;;4196846;28;20052;-57
2023/06/05 02:19:03;;;;;;;10.38;3.50;;;16.40;90.70;;;;;;4214713;28;20052;-57
2023/06/05 02:21:05;;;;;;;14.40;3.60;;;16.40;90.80;;;;;;4214448;28;20051;-57
2023/06/05 02:23:08;;;;;;;11.77;3.63;;;16.40;90.80;;;;;;4213880;28;20075;-54
2023/06/05 02:25:12;;;;;;;11.98;3.83;;;16.40;90.90;;;;;;4213152;28;20547;-55
2023/06/05 02:27:15;;;;;;;14.38;3.67;;;16.40;91.10;;;;;;4213802;28;20494;-54
2023/06/05 02:29:19;;;;;;;8.90;3.45;;;16.30;91.10;;;;;;4213788;28;20085;-54
2023/06/05 02:31:24;;;;;;;13.60;3.88;;;16.30;91.10;;;;;;4213455;28;20075;-55
2023/06/05 02:33:26;;;;;;;12.25;4.18;;;16.30;91.20;;;;;;4213865;28;20105;-55
2023/06/05 02:35:29;;;;;;;9.60;4.03;;;16.20;91.20;;;;;;4205291;28;20067;-55
2023/06/05 02:37:36;;;;;;;10.80;3.78;;;16.20;91.30;;;;;;4213932;28;20048;-55
2023/06/05 02:39:39;;;;;;;10.82;3.60;;;16.20;91.50;;;;;;4213900;28;20036;-55
2023/06/05 02:41:42;;;;;;;9.15;2.90;;;16.20;91.40;;;;;;4214021;28;20130;-55
2023/06/05 02:43:44;;;;;;;9.50;3.63;;;16.10;91.40;;;;;;4213670;28;20054;-55
2023/06/05 02:45:48;;;;;;;10.95;3.90;;;16.10;91.50;;;;;;4212502;28;20040;-55
2023/06/05 02:47:50;;;;;;;12.75;3.97;;;16.10;91.50;;;;;;4213786;28;20048;-54
2023/06/05 02:49:52;;;;;;;14.77;4.30;;;16.10;91.70;;;;;;4213654;28;20047;-55
2023/06/05 02:51:55;;;;;;;12.55;3.70;;;16.00;91.70;;;;;;4213599;28;20048;-54
2023/06/05 02:53:57;;;;;;;9.57;3.72;;;16.00;91.80;;;;;;4213744;28;20511;-54
2023/06/05 02:56:01;;;;;;;13.48;4.38;;;16.00;91.90;;;;;;4212479;28;20093;-54
2023/06/05 02:58:03;;;;;;;12.60;3.90;;;16.00;92.00;;;;;;4213827;28;20118;-55
2023/06/05 03:00:08;;;;;;;13.45;4.15;;;15.80;92.30;;;;;;4213169;28;20051;-54
2023/06/05 03:02:11;;;;;;;12.68;4.00;;;15.80;92.30;;;;;;4213755;28;20044;-54
2023/06/05 03:04:14;;;;;;;12.65;3.97;;;15.80;92.40;;;;;;4213471;28;20138;-54
2023/06/05 03:06:17;;;;;;;10.65;3.83;;;15.80;92.60;;;;;;4194538;28;20109;-54
2023/06/05 03:08:19;;;;;;;10.70;4.35;;;15.80;92.60;;;;;;4195587;28;20048;-54
2023/06/05 03:10:22;;;;;;;13.88;4.65;;;15.70;92.70;;;;;;4213712;28;20052;-54
2023/06/05 03:12:24;;;;;;;18.40;4.70;;;15.70;92.70;;;;;;4213458;28;20052;-54
2023/06/05 03:14:27;;;;;;;8.50;3.80;;;15.70;92.80;;;;;;4212940;28;20131;-54
2023/06/05 03:16:33;;;;;;;8.18;3.80;;;15.70;92.80;;;;;;4212487;28;20105;-54
2023/06/05 03:18:37;;;;;;;9.18;3.80;;;15.70;92.90;;;;;;4213452;28;20123;-55
2023/06/05 03:20:39;;;;;;;11.50;4.80;;;15.60;93.10;;;;;;4213608;28;20562;-55
2023/06/05 03:22:41;;;;;;;12.80;4.35;;;15.60;93.10;;;;;;4213796;28;20051;-54
2023/06/05 03:24:43;;;;;;;9.60;4.10;;;15.60;93.00;;;;;;4213055;28;20048;-55
2023/06/05 03:26:45;;;;;;;11.57;4.78;;;15.60;93.10;;;;;;4212223;28;20072;-55
2023/06/05 03:28:47;;;;;;;10.70;4.45;;;15.60;93.30;;;;;;4212943;28;20127;-55
2023/06/05 03:30:50;;;;;;;12.18;4.70;;;15.50;93.30;;;;;;4213288;28;20056;-54
2023/06/05 03:32:53;;;;;;;11.57;5.03;;;15.60;93.40;;;;;;4213275;28;20123;-54
2023/06/05 03:34:56;;;;;;;16.95;4.78;;;15.50;93.50;;;;;;4206123;28;20072;-55
2023/06/05 03:36:58;;;;;;;17.50;5.18;;;15.50;93.60;;;;;;4212318;28;20144;-55
2023/06/05 03:39:01;;;;;;;16.13;5.30;;;15.50;93.70;;;;;;4213388;28;20086;-55
2023/06/05 03:41:03;;;;;;;10.43;4.28;;;15.50;93.70;;;;;;4213234;28;20043;-55
2023/06/05 03:43:05;;;;;;;14.20;5.25;;;15.50;93.80;;;;;;4212658;28;20055;-53
2023/06/05 03:45:09;;;;;;;12.70;4.82;;;15.40;93.90;;;;;;4213072;28;20052;-55
2023/06/05 03:47:14;;;;;;;11.35;4.85;;;15.50;93.90;;;;;;4213764;28;20044;-55
2023/06/05 03:49:16;;;;;;;16.45;4.93;;;15.40;94.00;;;;;;4216497;28;20052;-54
2023/06/05 03:51:20;;;;;;;9.93;4.97;;;15.40;93.90;;;;;;4216457;28;20048;-55
2023/06/05 03:53:22;;;;;;;9.00;4.45;;;15.50;94.00;;;;;;4216498;28;20127;-54
2023/06/05 03:55:24;;;;;;;16.10;5.32;;;15.40;93.90;;;;;;4197722;28;20047;-55
2023/06/05 03:57:27;;;;;;;15.20;5.03;;;15.40;94.00;;;;;;4215662;28;20050;-55
2023/06/05 03:59:29;;;;;;;12.00;5.07;;;15.40;94.00;;;;;;4216105;28;20074;-54
2023/06/05 04:01:34;;;;;;;10.43;4.70;;;15.40;94.20;;;;;;4216144;28;20119;-54
2023/06/05 04:03:37;;;;;;;12.95;4.75;;;15.40;94.20;;;;;;4216103;28;20048;-54
2023/06/05 04:05:40;;;;;;;18.15;5.20;;;15.30;94.30;;;;;;4215390;28;20040;-54
2023/06/05 04:07:43;;;;;;;14.23;5.22;;;15.40;94.30;;;;;;4216008;28;20055;-54
2023/06/05 04:09:45;;;;;;;9.80;5.15;;;15.40;94.30;;;;;;4215919;28;20044;-54
2023/06/05 04:11:49;;;;;;;13.02;5.30;;;15.40;94.30;;;;;;4216257;28;20048;-54
2023/06/05 04:13:51;;;;;;;16.80;5.93;;;15.50;94.40;;;;;;4215845;28;20514;-54
2023/06/05 04:15:53;;;;;;;22.23;5.47;;;15.50;94.50;;;;;;4215185;28;20492;-54
2023/06/05 04:17:55;;;;;;;15.52;6.00;;;15.40;94.70;;;;;;4215790;28;20083;-54
2023/06/05 04:19:58;;;;;;;15.18;5.50;;;15.40;94.60;;;;;;4215816;28;20044;-58
2023/06/05 04:22:00;;;;;;;11.75;5.20;;;15.30;94.80;;;;;;4216034;28;20119;-54
2023/06/05 04:24:06;;;;;;;11.73;4.80;;;15.40;94.50;;;;;;4215608;28;20109;-55
2023/06/05 04:26:09;;;;;;;11.77;5.68;;;15.40;94.60;;;;;;4214904;28;20474;-55
2023/06/05 04:28:11;;;;;;;13.27;5.30;;;15.40;94.70;;;;;;4215483;28;20434;-54
2023/06/05 04:30:14;;;;;;;12.77;4.97;;;15.40;94.80;;;;;;4215700;28;20139;-55
2023/06/05 04:32:16;;;;;;;17.27;5.78;;;15.40;94.80;;;;;;4215982;28;20083;-55
2023/06/05 04:34:19;;;;;;;17.17;5.65;;;15.50;94.80;;;;;;4213784;28;20044;-55
2023/06/05 04:36:21;;;;;;;16.30;6.10;;;15.50;94.90;;;;;;4210356;28;20087;-55
2023/06/05 04:38:23;;;;;;;15.15;6.07;;;15.40;94.90;;;;;;4215689;28;20074;-57
2023/06/05 04:40:26;;;;;;;23.17;6.45;;;15.40;95.10;;;;;;4197719;28;20076;-57
2023/06/05 04:42:30;;;;;;;19.13;6.78;;;15.30;95.30;;;;;;4215372;28;20090;-57
2023/06/05 04:44:33;;;;;;;15.55;5.55;;;15.40;95.30;;;;;;4215481;28;20860;-57
2023/06/05 04:46:38;;;;;;;19.15;6.05;;;15.40;95.40;;;;;;4214622;28;20044;-58
2023/06/05 04:48:41;;;;;;;17.30;7.43;;;15.30;95.50;;;;;;4215411;28;20440;-58
2023/06/05 04:50:43;;;;;;;16.98;6.82;;;15.30;95.70;;;;;;4215455;28;20040;-57
2023/06/05 04:52:45;;;;;;;14.25;6.13;;;15.30;95.80;;;;;;4215792;28;20045;-57
2023/06/05 04:54:48;;;;;;;11.38;5.53;;;15.40;95.60;;;;;;4215395;28;20072;-56
2023/06/05 04:56:52;;;;;;;15.55;7.30;;;15.40;95.50;;;;;;4214153;28;20539;-58
2023/06/05 04:58:54;;;;;;;21.15;6.40;;;15.50;95.50;;;;;;4214504;28;20052;-57
2023/06/05 05:01:04;;;;;;;26.08;7.18;;;15.60;95.40;;;;;;4215494;28;20063;-55
2023/06/05 05:03:07;;;;;;;15.52;6.22;;;15.60;95.40;;;;;;4215585;28;20058;-54
2023/06/05 05:05:12;;;;;;;14.45;6.45;;;15.60;95.50;;;;;;4215109;28;20074;-55
2023/06/05 05:07:16;;;;;;;11.90;6.25;;;15.60;95.40;;;;;;4214154;28;20459;-57
2023/06/05 05:09:18;;;;;;;17.00;6.35;;;15.60;95.40;;;;;;4215228;28;20124;-57
2023/06/05 05:11:21;;;;;;;16.83;7.00;;;15.60;95.30;;;;;;4214598;28;20048;-57
2023/06/05 05:13:24;;;;;;;12.10;6.18;;;15.70;95.30;;;;;;4215098;28;20059;-56
2023/06/05 05:15:27;;;;;;;18.05;7.10;;;15.70;95.30;;;;;;4214963;28;20047;-58
2023/06/05 05:17:30;;;;;;;20.27;7.20;;;15.70;95.40;;;;;;4213666;28;20040;-55
2023/06/05 05:19:32;;;;;;;17.40;7.28;;;15.70;95.40;;;;;;4215276;28;20040;-58
2023/06/05 05:21:36;;;;;;;17.02;7.35;;;15.70;95.40;;;;;;4214910;28;20044;-57
2023/06/05 05:23:38;;;;;;;21.23;7.13;;;15.70;95.40;;;;;;4214993;28;20044;-57
2023/06/05 05:25:40;;;;;;;17.17;6.75;;;15.70;95.60;;;;;;4213941;28;20040;-58
2023/06/05 05:27:42;;;;;;;19.20;6.85;;;15.70;95.60;;;;;;4214740;28;20075;-58
2023/06/05 05:29:46;;;;;;;19.67;6.68;;;15.70;95.60;;;;;;4215186;28;20094;-57
2023/06/05 05:31:48;;;;;;;14.80;6.60;;;15.60;95.70;;;;;;4215716;28;20059;-57
2023/06/05 05:33:50;;;;;;;14.52;7.15;;;15.70;95.70;;;;;;4217632;28;20502;-57
2023/06/05 05:35:52;;;;;;;19.98;7.30;;;15.80;95.60;;;;;;4210973;28;20446;-56
2023/06/05 05:37:55;;;;;;;19.90;7.00;;;15.70;95.70;;;;;;4217552;28;20119;-55
2023/06/05 05:39:57;;;;;;;21.00;7.60;;;15.70;95.60;;;;;;4215377;28;20044;-56
2023/06/05 05:42:01;;;;;;;14.65;7.57;;;15.80;95.50;;;;;;4197215;28;20123;-55
2023/06/05 05:44:03;;;;;;;17.58;7.72;;;15.90;95.40;;;;;;4214863;28;20139;-54
2023/06/05 05:46:06;;;;;;;27.80;8.07;;;15.90;95.40;;;;;;4195828;28;20051;-55
2023/06/05 05:48:09;;;;;;;32.53;8.50;;;15.90;95.30;;;;;;4214926;28;20093;-55
2023/06/05 05:50:11;;;;;;;33.40;8.35;;;15.90;95.40;;;;;;4214530;28;20040;-55
2023/06/05 05:52:13;;;;;;;22.27;8.00;;;16.00;95.40;;;;;;4214703;28;20051;-55
2023/06/05 05:54:15;;;;;;;18.95;7.20;;;15.90;95.40;;;;;;4214475;28;20125;-58
2023/06/05 05:56:17;;;;;;;23.67;8.40;;;15.90;95.60;;;;;;4213368;28;20048;-57
2023/06/05 05:58:20;;;;;;;16.48;7.68;;;16.00;95.40;;;;;;4214400;28;20097;-58
2023/06/05 06:00:22;;;;;;;15.23;7.22;;;16.00;95.30;;;;;;4214429;28;20439;-57
2023/06/05 06:02:25;;;;;;;21.65;7.82;;;16.00;95.40;;;;;;4196791;28;20053;-61
2023/06/05 06:04:29;;;;;;;15.93;7.07;;;16.00;95.30;;;;;;4215051;28;20123;-57
2023/06/05 06:06:31;;;;;;;15.30;6.80;;;15.90;95.30;;;;;;4214096;28;20090;-58
2023/06/05 06:08:33;;;;;;;15.07;6.25;;;15.90;95.30;;;;;;4214518;28;20044;-57
2023/06/05 06:10:36;;;;;;;22.27;7.70;;;15.90;95.30;;;;;;4214098;28;20044;-58
2023/06/05 06:12:38;;;;;;;15.98;6.95;;;15.90;95.40;;;;;;4214310;28;20044;-58
2023/06/05 06:14:41;;;;;;;27.67;7.78;;;15.90;95.40;;;;;;4213462;28;20040;-57
2023/06/05 06:16:43;;;;;;;29.13;7.85;;;15.90;95.50;;;;;;4213218;28;20040;-58
2023/06/05 06:18:47;;;;;;;22.42;8.02;;;16.00;95.40;;;;;;4214213;28;20136;-58
2023/06/05 06:20:49;;;;;;;21.40;7.57;;;16.10;95.20;;;;;;4214143;28;20043;-58
2023/06/05 06:22:51;;;;;;;22.83;7.57;;;16.10;95.20;;;;;;4213977;28;20048;-58
2023/06/05 06:24:53;;;;;;;18.52;7.15;;;16.10;95.10;;;;;;4214525;28;20040;-58
2023/06/05 06:26:55;;;;;;;15.50;6.90;;;16.10;95.20;;;;;;4212985;28;20111;-58
2023/06/05 06:28:59;;;;;;;22.67;7.00;;;16.10;95.10;;;;;;4213820;28;20048;-58
2023/06/05 06:31:01;;;;;;;19.92;7.88;;;16.20;94.90;;;;;;4216127;28;20070;-60
2023/06/05 06:33:04;;;;;;;21.10;7.53;;;16.20;94.70;;;;;;4216380;28;20047;-58
2023/06/05 06:35:08;;;;;;;22.88;7.03;;;16.30;94.90;;;;;;4207504;28;20051;-57
2023/06/05 06:37:11;;;;;;;18.45;7.85;;;16.30;94.70;;;;;;4212849;28;20071;-58
2023/06/05 06:39:14;;;;;;;19.40;6.72;;;16.30;94.80;;;;;;4213983;28;20108;-58
2023/06/05 06:41:16;;;;;;;19.52;7.35;;;16.40;94.80;;;;;;4213769;28;20040;-58
2023/06/05 06:43:18;;;;;;;12.77;6.78;;;16.50;94.60;;;;;;4214173;28;20052;-58
2023/06/05 06:45:21;;;;;;;14.75;7.45;;;16.50;94.50;;;;;;4213899;28;20052;-58
2023/06/05 06:47:24;;;;;;;13.88;7.07;;;16.60;94.30;;;;;;4212661;28;20066;-58
2023/06/05 06:49:27;;;;;;;23.55;7.18;;;16.60;94.20;;;;;;4213699;28;20071;-57
2023/06/05 06:51:32;;;;;;;18.60;7.07;;;16.70;94.20;;;;;;4213199;28;20039;-58
2023/06/05 06:53:34;;;;;;;14.55;7.10;;;16.80;94.20;;;;;;4213673;28;20044;-58
2023/06/05 06:55:37;;;;;;;17.95;6.63;;;16.90;94.10;;;;;;4213415;28;20130;-58
2023/06/05 06:57:39;;;;;;;21.48;6.93;;;17.00;93.70;;;;;;4194732;28;20064;-58
2023/06/05 06:59:41;;;;;;;27.25;7.30;;;17.20;93.60;;;;;;4213853;28;20110;-58
2023/06/05 07:01:48;;;;;;;17.40;6.35;;;17.30;93.20;;;;;;4213819;28;20075;-58
2023/06/05 07:03:50;;;;;;;31.42;6.97;;;17.50;92.90;;;;;;4213590;28;20040;-54
2023/06/05 07:05:53;;;;;;;29.60;7.25;;;17.60;92.80;;;;;;4195864;28;20460;-53
2023/06/05 07:08:00;;;;;;;34.85;7.93;;;17.80;92.70;;;;;;4213000;28;20044;-57
2023/06/05 07:10:03;;;;;;;18.98;6.72;;;17.90;92.50;;;;;;4215062;28;20119;-55
2023/06/05 07:12:07;;;;;;;23.70;6.97;;;18.10;92.10;;;;;;4197465;28;20102;-58
2023/06/05 07:14:10;;;;;;;32.00;6.00;;;18.20;91.90;;;;;;4214543;28;20086;-55
2023/06/05 07:16:12;;;;;;;24.33;6.95;;;18.40;91.90;;;;;;4213717;28;20454;-56
2023/06/05 07:18:15;;;;;;;23.15;6.60;;;18.70;91.30;;;;;;4214313;28;20054;-55
2023/06/05 07:20:17;;;;;;;17.13;6.53;;;18.70;91.00;;;;;;4213854;28;20072;-55
2023/06/05 07:22:20;;;;;;;20.15;5.97;;;18.80;90.90;;;;;;4214922;28;20094;-57
2023/06/05 07:24:26;;;;;;;14.55;5.75;;;18.90;91.00;;;;;;4216896;28;20114;-56
2023/06/05 07:26:28;;;;;;;13.40;5.95;;;19.10;90.30;;;;;;4215939;28;20127;-55
2023/06/05 07:28:30;;;;;;;17.92;6.20;;;19.10;90.10;;;;;;4216745;28;20495;-55
2023/06/05 07:30:32;;;;;;;17.92;6.78;;;18.90;90.20;;;;;;4217142;28;20048;-54
2023/06/05 07:32:34;;;;;;;17.92;5.80;;;19.00;90.90;;;;;;4198952;28;20410;-54
2023/06/05 07:34:36;;;;;;;17.05;6.22;;;18.90;90.70;;;;;;4211982;28;20094;-55
2023/06/05 07:36:39;;;;;;;15.38;5.82;;;18.70;92.60;;;;;;4213602;28;20048;-55
2023/06/05 07:38:41;;;;;;;20.60;6.07;;;18.70;91.70;;;;;;4198772;28;20066;-54
2023/06/05 07:40:45;;;;;;;19.85;5.43;;;18.80;92.60;;;;;;4216653;28;20044;-53
2023/06/05 07:42:47;;;;;;;12.63;5.57;;;18.60;91.30;;;;;;4216443;28;20093;-53
2023/06/05 07:44:49;;;;;;;12.32;5.50;;;18.50;91.00;;;;;;4216761;28;20409;-53
2023/06/05 07:46:51;;;;;;;15.98;5.35;;;18.70;91.00;;;;;;4215737;28;20040;-52
2023/06/05 07:48:54;;;;;;;16.83;5.40;;;18.70;90.70;;;;;;4216548;28;20051;-52
2023/06/05 07:50:55;;;;;;;18.58;5.30;;;18.90;91.20;;;;;;4198181;28;20127;-56
2023/06/05 07:52:57;;;;;;;14.73;5.43;;;19.10;90.60;;;;;;4216410;28;20465;-55
2023/06/05 07:55:00;;;;;;;13.55;5.38;;;19.20;90.40;;;;;;4216394;28;20068;-55
2023/06/05 07:57:04;;;;;;;17.10;5.55;;;19.00;90.00;;;;;;4215089;28;20479;-56
2023/06/05 07:59:07;;;;;;;12.00;5.47;;;19.00;90.10;;;;;;4216331;28;20048;-55
2023/06/05 08:01:12;;;;;;;19.88;5.25;;;19.10;90.00;;;;;;4216569;28;20082;-55
2023/06/05 08:03:19;;;;;;;;;;;19.10;89.80;;;;;;4217021;28;20067;-55
2023/06/05 08:05:21;;;;;;;20.25;6.25;;;19.10;90.20;;;;;;4215730;28;19927;-55
2023/06/05 08:07:24;;;;;;;28.90;5.75;;;19.30;90.20;;;;;;4215112;28;20083;-55
2023/06/05 08:09:26;;;;;;;38.05;7.57;;;19.50;88.90;;;;;;4216236;28;20131;-56
2023/06/05 08:11:28;;;;;;;29.52;5.93;;;19.50;88.60;;;;;;4215828;28;20174;-55
2023/06/05 08:13:31;;;;;;;33.35;6.78;;;19.50;88.20;;;;;;4216299;28;20055;-56
2023/06/05 08:15:34;;;;;;;19.65;5.00;;;19.50;87.90;;;;;;4216013;28;20054;-55
2023/06/05 08:17:36;;;;;;;20.63;5.97;;;19.60;88.60;;;;;;4214692;28;20046;-56
2023/06/05 08:19:38;;;;;;;13.18;5.28;;;19.80;88.80;;;;;;4215623;28;20048;-56
2023/06/05 08:21:40;;;;;;;32.25;6.90;;;19.70;87.90;;;;;;4216043;28;20456;-55
2023/06/05 08:23:42;;;;;;;24.02;6.30;;;19.70;88.00;;;;;;4216116;28;20079;-53
2023/06/05 08:25:45;;;;;;;26.52;6.38;;;19.70;88.20;;;;;;4216275;28;20043;-56
2023/06/05 08:27:47;;;;;;;22.67;5.82;;;19.90;88.60;;;;;;4215020;28;20044;-56
2023/06/05 08:29:51;;;;;;;11.52;5.18;;;19.80;87.70;;;;;;4215850;28;20086;-55
2023/06/05 08:31:53;;;;;;;17.90;4.40;;;19.80;87.90;;;;;;4215796;28;20048;-54
2023/06/05 08:33:55;;;;;;;16.70;5.38;;;19.80;87.90;;;;;;4214048;28;20054;-55
2023/06/05 08:35:57;;;;;;;15.25;5.18;;;20.00;87.90;;;;;;4208516;28;20509;-58
2023/06/05 08:38:01;;;;;;;17.77;5.43;;;20.20;87.70;;;;;;4214569;28;20082;-57
2023/06/05 08:40:06;;;;;;;15.52;4.63;;;20.30;86.20;;;;;;4215522;28;20044;-57
2023/06/05 08:42:10;;;;;;;37.25;6.78;;;20.20;86.40;;;;;;4215444;28;20046;-55
2023/06/05 08:44:12;;;;;;;30.58;7.43;;;20.40;86.60;;;;;;4215424;28;20051;-57
2023/06/05 08:46:17;;;;;;;26.45;6.00;;;20.30;86.00;;;;;;4215177;28;20068;-58
2023/06/05 08:48:21;;;;;;;32.38;5.47;;;20.30;86.80;;;;;;4196671;28;20058;-55
2023/06/05 08:50:23;;;;;;;24.83;6.05;;;20.50;86.30;;;;;;4215849;28;20068;-56
2023/06/05 08:52:29;;;;;;;22.40;4.85;;;20.60;85.90;;;;;;4215700;28;20383;-55
2023/06/05 08:54:37;;;;;;;37.45;6.78;;;20.60;84.70;;;;;;4215640;28;20048;-57
2023/06/05 08:56:40;;;;;;;34.45;7.65;;;20.60;84.90;;;;;;4216033;28;20048;-57
2023/06/05 08:58:44;;;;;;;17.15;4.95;;;20.70;85.80;;;;;;4217495;28;20048;-59
2023/06/05 09:00:48;;;;;;;32.20;6.82;;;20.80;85.50;;;;;;4218388;28;20055;-59
2023/06/05 09:02:52;;;;;;;26.65;7.10;;;20.90;85.30;;;;;;4217573;28;20409;-55
2023/06/05 09:04:54;;;;;;;26.73;6.15;;;21.00;84.60;;;;;;4216126;28;20056;-56
2023/06/05 09:06:57;;;;;;;19.77;4.90;;;21.00;84.50;;;;;;4214443;28;20090;-56
2023/06/05 09:09:01;;;;;;;39.15;7.00;;;21.00;84.50;;;;;;4215243;28;20071;-55
2023/06/05 09:11:23;;;;;;;14.53;5.07;;;21.10;84.90;;;;;;4215673;28;20067;-58
2023/06/05 09:13:27;;;;;;;27.00;4.80;;;21.40;83.90;;;;;;4215369;28;20950;-56
2023/06/05 09:15:30;;;;;;;38.67;6.32;;;21.40;82.90;;;;;;4215201;28;20170;-55
2023/06/05 09:17:32;;;;;;;25.70;5.88;;;21.40;83.10;;;;;;4213564;28;20058;-56
2023/06/05 09:19:40;;;;;;;17.90;4.68;;;21.60;83.40;;;;;;4215470;28;20436;-58
2023/06/05 09:21:54;;;;;;;14.60;4.82;;;21.80;83.20;;;;;;4215214;28;20055;-58
2023/06/05 09:24:15;;;;;;;69.70;10.05;;;21.90;81.80;;;;;;4214777;28;20052;-55
2023/06/05 09:26:17;;;;;;;18.85;5.32;;;21.80;82.00;;;;;;4214225;28;20199;-58
2023/06/05 09:28:22;;;;;;;19.60;5.00;;;21.90;82.70;;;;;;4213879;28;20067;-57
2023/06/05 09:30:24;;;;;;;41.88;6.88;;;22.00;82.60;;;;;;4215080;28;20051;-58
2023/06/05 09:32:26;;;;;;;33.65;5.78;;;22.00;82.40;;;;;;4214640;28;20044;-57
2023/06/05 09:34:30;;;;;;;17.15;5.13;;;22.10;82.50;;;;;;4211380;28;20041;-55
2023/06/05 09:36:34;;;;;;;17.03;5.20;;;22.10;81.50;;;;;;4211283;28;20099;-55
2023/06/05 09:38:38;;;;;;;48.45;6.97;;;22.00;81.30;;;;;;4214613;28;20044;-57
2023/06/05 09:40:41;;;;;;;10.07;3.72;;;22.10;82.10;;;;;;4214783;28;20048;-57
2023/06/05 09:42:43;;;;;;;12.27;3.95;;;22.30;81.30;;;;;;4214668;28;20040;-55
2023/06/05 09:44:58;;;;;;;12.20;4.20;;;22.50;80.70;;;;;;4214073;28;20490;-55
2023/06/05 09:47:03;;;;;;;15.32;4.82;;;22.40;78.80;;;;;;4213397;28;20051;-55
2023/06/05 09:49:06;;;;;;;17.63;4.30;;;22.60;80.30;;;;;;4214260;28;20060;-55
2023/06/05 09:51:10;;;;;;;12.48;3.58;;;22.70;78.80;;;;;;4214433;28;20089;-55
2023/06/05 09:53:16;;;;;;;7.57;2.72;;;22.70;78.40;;;;;;4214378;28;20417;-55
2023/06/05 09:55:19;;;;;;;15.52;3.33;;;22.80;78.30;;;;;;4214660;28;20048;-55
2023/06/05 09:57:24;;;;;;;7.38;3.72;;;23.10;77.50;;;;;;4213479;28;20048;-56
2023/06/05 09:59:29;;;;;;;12.32;3.38;;;23.20;76.10;;;;;;4214589;28;20152;-55
2023/06/05 10:01:35;;;;;;;10.20;3.22;;;23.30;76.80;;;;;;4214050;28;20044;-55
2023/06/05 10:03:42;;;;;;;13.85;3.65;;;23.50;76.30;;;;;;4214484;28;20040;-56
2023/06/05 10:05:45;;;;;;;14.27;3.55;;;23.60;75.50;;;;;;4214148;28;20160;-56
2023/06/05 10:07:53;;;;;;;8.68;3.35;;;23.70;75.70;;;;;;4213219;28;20078;-56
2023/06/05 10:09:57;;;;;;;15.57;3.85;;;23.50;75.50;;;;;;4214323;28;20048;-59
2023/06/05 10:12:00;;;;;;;19.33;3.97;;;23.70;75.40;;;;;;4214254;28;20044;-58
2023/06/05 10:14:04;;;;;;;15.25;3.38;;;23.90;74.50;;;;;;4214195;28;20089;-58
2023/06/05 10:16:07;;;;;;;17.23;3.20;;;24.00;73.20;;;;;;4214414;28;20123;-56
2023/06/05 10:18:26;;;;;;;10.98;2.85;;;23.90;72.40;;;;;;4213431;28;20048;-58
2023/06/05 10:20:29;;;;;;;11.90;2.95;;;23.90;72.40;;;;;;4214467;28;20051;-58
2023/06/05 10:22:34;;;;;;;9.82;2.90;;;24.00;73.00;;;;;;4214217;28;20040;-58
2023/06/05 10:24:41;;;;;;;10.15;3.13;;;24.10;73.20;;;;;;4213915;28;20413;-59
2023/06/05 10:27:22;;;;;;;9.30;3.08;;;24.30;73.40;;;;;;4213251;28;20048;-60
2023/06/05 10:29:43;;;;;;;10.73;3.17;;;24.30;72.00;;;;;;4213648;28;20044;-58
2023/06/05 10:31:52;;;;;;;11.32;3.45;;;24.30;72.90;;;;;;4213969;28;20044;-58
2023/06/05 10:34:14;;;;;;;26.48;3.97;;;24.40;71.90;;;;;;4213893;28;20040;-58
2023/06/05 10:36:39;;;;;;;16.52;3.00;;;24.40;70.60;;;;;;4208581;28;20051;-58